createdAt,value
2023-02-03T00:01:26.535Z,101651.16
2023-02-03T00:03:54.178Z,101637.38
2023-02-03T00:06:21.824Z,101637.53
2023-02-03T00:08:49.655Z,101649.38
2023-02-03T00:11:17.119Z,101655.09
2023-02-03T00:13:44.543Z,101654.31
2023-02-03T00:16:11.990Z,101673.56
2023-02-03T00:18:39.449Z,101668.19
2023-02-03T00:21:07.435Z,101670.16
2023-02-03T00:23:36.183Z,101685.28
2023-02-03T00:26:11.886Z,101688.59
2023-02-03T00:28:41.384Z,101682.56
2023-02-03T00:31:20.590Z,101691.34
2023-02-03T00:33:53.081Z,101668.41
2023-02-03T00:36:20.957Z,101681.91
2023-02-03T00:38:50.090Z,101685.66
2023-02-03T00:41:18.191Z,101685.50
2023-02-03T00:43:45.720Z,101678.81
2023-02-03T00:46:15.204Z,101659.75
2023-02-03T00:48:42.668Z,101675.44
2023-02-03T00:51:10.159Z,101694.19
2023-02-03T00:53:37.703Z,101680.94
2023-02-03T00:56:12.393Z,101687.66
2023-02-03T00:58:40.755Z,101680.19
2023-02-03T01:01:09.098Z,101680.75
2023-02-03T01:03:36.785Z,101678.84
2023-02-03T01:06:16.835Z,101676.34
2023-02-03T01:08:45.063Z,101691.00
2023-02-03T01:11:17.204Z,101701.38
2023-02-03T01:13:45.394Z,101717.63
2023-02-03T01:16:15.334Z,101699.47
2023-02-03T01:18:43.283Z,101695.09
2023-02-03T01:21:14.619Z,101703.75
2023-02-03T01:23:42.776Z,101704.78
2023-02-03T01:26:16.766Z,101706.47
2023-02-03T01:28:44.789Z,101710.81
2023-02-03T01:31:14.871Z,101718.03
2023-02-03T01:33:46.225Z,101710.66
2023-02-03T01:36:17.679Z,101710.31
2023-02-03T01:38:46.407Z,101691.03
2023-02-03T01:41:17.717Z,101696.03
2023-02-03T01:43:51.480Z,101687.66
2023-02-03T01:46:18.992Z,101682.72
2023-02-03T01:48:46.669Z,101678.66
2023-02-03T01:51:14.396Z,101679.16
2023-02-03T01:53:42.368Z,101687.78
2023-02-03T01:56:10.962Z,101696.41
2023-02-03T01:58:41.512Z,101704.09
2023-02-03T02:01:09.139Z,101694.81
2023-02-03T02:03:45.851Z,101687.47
2023-02-03T02:06:14.716Z,101677.72
2023-02-03T02:08:47.431Z,101675.47
2023-02-03T02:11:16.114Z,101675.00
2023-02-03T02:13:45.569Z,101680.19
2023-02-03T02:16:22.490Z,101684.00
2023-02-03T02:19:27.419Z,101698.31
2023-02-03T02:22:17.683Z,101682.19
2023-02-03T02:25:03.597Z,101686.53
2023-02-03T02:27:57.389Z,101682.69
2023-02-03T02:30:43.201Z,101682.63
2023-02-03T02:33:33.464Z,101683.84
2023-02-03T02:36:32.882Z,101700.50
2023-02-03T02:39:06.240Z,101712.00
2023-02-03T02:41:44.887Z,101708.94
2023-02-03T02:44:16.370Z,101723.63
2023-02-03T02:46:48.615Z,101722.63
2023-02-03T02:49:25.864Z,101715.28
2023-02-03T02:51:54.652Z,101720.06
2023-02-03T02:54:25.433Z,101728.81
2023-02-03T02:56:57.799Z,101725.97
2023-02-03T02:59:25.372Z,101714.63
2023-02-03T03:01:52.907Z,101706.09
2023-02-03T03:04:26.168Z,101697.13
2023-02-03T03:07:04.809Z,101698.78
2023-02-03T03:09:43.030Z,101699.78
2023-02-03T03:12:17.014Z,101719.03
2023-02-03T03:14:49.111Z,101718.03
2023-02-03T03:17:41.020Z,101722.03
2023-02-03T03:20:15.752Z,101719.34
2023-02-03T03:22:49.057Z,101715.81
2023-02-03T03:25:19.743Z,101708.78
2023-02-03T03:27:52.564Z,101710.59
2023-02-03T03:30:35.821Z,101715.59
2023-02-03T03:33:05.793Z,101704.44
2023-02-03T03:35:43.183Z,101703.34
2023-02-03T03:38:21.765Z,101716.44
2023-02-03T03:40:55.845Z,101737.69
2023-02-03T03:43:28.543Z,101764.88
2023-02-03T03:46:01.931Z,101765.22
2023-02-03T03:48:38.086Z,101779.91
2023-02-03T03:51:19.238Z,101779.56
2023-02-03T03:53:50.058Z,101778.16
2023-02-03T03:56:34.231Z,101782.41
2023-02-03T03:59:04.964Z,101778.03
2023-02-03T04:01:32.828Z,101765.31
2023-02-03T04:04:05.943Z,101774.50
2023-02-03T04:06:33.489Z,101755.69
2023-02-03T04:09:02.300Z,101762.41
2023-02-03T04:11:52.438Z,101765.78
2023-02-03T04:14:20.024Z,101767.44
2023-02-03T04:16:47.567Z,101779.22
2023-02-03T04:19:15.161Z,101781.19
2023-02-03T04:21:42.583Z,101767.25
2023-02-03T04:24:10.200Z,101775.00
2023-02-03T04:26:38.013Z,101780.41
2023-02-03T04:29:05.520Z,101769.69
2023-02-03T04:31:33.380Z,101767.38
2023-02-03T04:34:00.903Z,101762.09
2023-02-03T04:36:28.412Z,101751.88
2023-02-03T04:38:55.937Z,101744.84
2023-02-03T04:41:23.441Z,101726.59
2023-02-03T04:43:51.007Z,101700.78
2023-02-03T04:46:19.106Z,101707.72
2023-02-03T04:48:46.695Z,101726.06
2023-02-03T04:51:14.174Z,101733.09
2023-02-03T04:53:41.686Z,101737.63
2023-02-03T04:56:09.300Z,101742.84
2023-02-03T04:58:37.461Z,101729.19
2023-02-03T05:01:08.103Z,101729.34
2023-02-03T05:03:36.257Z,101721.25
2023-02-03T05:06:05.513Z,101734.63
2023-02-03T05:08:33.084Z,101737.81
2023-02-03T05:11:02.099Z,101724.47
2023-02-03T05:13:29.906Z,101739.06
2023-02-03T05:15:57.458Z,101743.69
2023-02-03T05:18:25.008Z,101745.44
2023-02-03T05:20:52.472Z,101739.75
2023-02-03T05:23:19.909Z,101744.03
2023-02-03T05:25:47.524Z,101746.69
2023-02-03T05:28:15.043Z,101751.13
2023-02-03T05:30:42.715Z,101747.56
2023-02-03T05:33:10.238Z,101751.19
2023-02-03T05:35:38.013Z,101751.03
2023-02-03T05:38:05.519Z,101745.91
2023-02-03T05:40:51.660Z,101747.59
2023-02-03T05:43:19.337Z,101747.59
2023-02-03T05:45:46.962Z,101754.66
2023-02-03T05:48:14.541Z,101760.94
2023-02-03T05:50:42.247Z,101771.78
2023-02-03T05:53:09.895Z,101783.13
2023-02-03T05:55:38.282Z,101764.34
2023-02-03T05:58:21.075Z,101772.19
2023-02-03T06:00:48.677Z,101786.44
2023-02-03T06:03:16.402Z,101791.09
2023-02-03T06:05:46.587Z,101793.56
2023-02-03T06:08:30.613Z,101788.00
2023-02-03T06:12:15.144Z,101778.81
2023-02-03T06:14:38.449Z,101768.06
2023-02-03T06:17:06.173Z,101773.22
2023-02-03T06:27:16.819Z,101781.09
2023-02-03T06:30:25.569Z,101782.59
2023-02-03T06:34:11.317Z,101787.59
2023-02-03T06:40:47.942Z,101810.84
2023-02-03T06:43:16.307Z,101805.06
2023-02-03T06:45:49.649Z,101808.72
2023-02-03T06:48:20.331Z,101823.94
2023-02-03T07:52:41.732Z,101887.41
2023-02-03T07:55:09.981Z,101901.72
2023-02-03T07:57:37.348Z,101893.22
2023-02-03T08:00:05.201Z,101895.50
2023-02-03T08:02:40.715Z,101885.72
2023-02-03T08:05:09.026Z,101912.28
2023-02-03T08:07:36.822Z,101910.00
2023-02-03T08:10:04.471Z,101892.59
2023-02-03T08:12:31.882Z,101905.97
2023-02-03T08:14:59.427Z,101900.38
2023-02-03T08:17:27.373Z,101890.09
2023-02-03T08:19:54.771Z,101890.31
2023-02-03T08:22:22.211Z,101875.94
2023-02-03T08:24:49.823Z,101901.78
2023-02-03T08:27:20.242Z,101900.56
2023-02-03T08:29:48.302Z,101887.03
2023-02-03T08:32:19.969Z,101880.81
2023-02-03T08:34:49.051Z,101876.47
2023-02-03T08:37:18.475Z,101881.06
2023-02-03T08:39:45.998Z,101862.06
2023-02-03T08:42:13.660Z,101855.59
2023-02-03T08:44:41.481Z,101859.34
2023-02-03T08:47:09.024Z,101851.88
2023-02-03T08:49:39.391Z,101855.59
2023-02-03T08:52:09.087Z,101868.72
2023-02-03T08:54:36.833Z,101868.31
2023-02-03T08:57:04.736Z,101872.84
2023-02-03T08:59:36.121Z,101888.34
2023-02-03T09:02:05.763Z,101881.44
2023-02-03T09:04:34.129Z,101886.03
2023-02-03T09:07:03.619Z,101896.81
2023-02-03T09:09:32.034Z,101912.19
2023-02-03T09:12:02.630Z,101913.69
2023-02-03T09:14:31.549Z,101918.00
2023-02-03T09:17:00.757Z,101898.56
2023-02-03T09:19:28.179Z,101898.28
2023-02-03T09:21:57.246Z,101886.88
2023-02-03T09:24:25.157Z,101884.31
2023-02-03T09:26:52.912Z,101892.91
2023-02-03T09:29:20.582Z,101906.25
2023-02-03T09:31:50.461Z,101920.00
2023-02-03T09:34:18.282Z,101928.38
2023-02-03T09:36:46.163Z,101922.03
2023-02-03T09:39:13.983Z,101924.78
2023-02-03T09:42:05.631Z,101940.97
2023-02-03T09:44:49.624Z,101948.97
2023-02-03T09:47:28.575Z,101934.66
2023-02-03T09:50:00.593Z,101917.25
2023-02-03T09:52:39.780Z,101912.94
2023-02-03T09:55:48.745Z,101931.44
2023-02-03T09:58:21.154Z,101926.88
2023-02-03T10:01:05.839Z,101924.13
2023-02-03T10:03:49.713Z,101924.63
2023-02-03T10:06:17.158Z,101919.13
2023-02-03T10:09:12.223Z,101913.41
2023-02-03T10:12:04.342Z,101907.13
2023-02-03T10:14:56.479Z,101912.44
2023-02-03T10:17:53.187Z,101916.50
2023-02-03T10:20:35.981Z,101920.41
2023-02-03T10:23:12.449Z,101912.78
2023-02-03T10:25:49.700Z,101901.16
2023-02-03T10:28:20.475Z,101908.41
2023-02-03T10:31:21.609Z,101903.41
2023-02-03T10:34:09.159Z,101909.31
2023-02-03T10:36:48.586Z,101905.69
2023-02-03T10:39:33.400Z,101892.56
2023-02-03T10:42:03.969Z,101891.56
2023-02-03T10:44:41.717Z,101883.44
2023-02-03T10:47:23.399Z,101873.00
2023-02-03T10:49:52.977Z,101872.19
2023-02-03T10:52:32.734Z,101861.13
2023-02-03T10:55:06.372Z,101860.16
2023-02-03T10:57:39.256Z,101842.78
2023-02-03T11:00:34.534Z,101833.25
2023-02-03T11:03:10.963Z,101837.06
2023-02-03T11:05:38.650Z,101825.78
2023-02-03T11:08:15.743Z,101830.78
2023-02-03T11:10:44.013Z,101846.88
2023-02-03T11:13:21.787Z,101839.56
2023-02-03T11:15:55.150Z,101840.59
2023-02-03T11:18:48.049Z,101833.47
2023-02-03T11:21:20.003Z,101821.28
2023-02-03T11:23:53.349Z,101827.97
2023-02-03T11:26:25.364Z,101823.66
2023-02-03T11:28:56.399Z,101813.66
2023-02-03T11:31:28.020Z,101808.91
2023-02-03T11:34:02.998Z,101794.91
2023-02-03T11:36:32.871Z,101802.00
2023-02-03T11:39:20.743Z,101814.69
2023-02-03T11:41:48.692Z,101788.69
2023-02-03T11:44:20.715Z,101781.81
2023-02-03T11:46:52.405Z,101788.38
2023-02-03T11:49:41.614Z,101778.84
2023-02-03T11:52:38.258Z,101774.69
2023-02-03T11:55:46.949Z,101774.84
2023-02-03T11:58:35.302Z,101747.28
2023-02-03T12:01:25.803Z,101744.28
2023-02-03T12:04:08.357Z,101739.84
2023-02-03T12:06:56.430Z,101745.56
2023-02-03T12:09:43.529Z,101735.34
2023-02-03T12:12:26.373Z,101734.03
2023-02-03T12:15:15.516Z,101729.47
2023-02-03T12:18:07.287Z,101709.16
2023-02-03T12:20:47.918Z,101712.97
2023-02-03T12:23:41.411Z,101705.44
2023-02-03T12:26:15.110Z,101686.06
2023-02-03T12:29:01.985Z,101687.38
2023-02-03T12:31:38.822Z,101688.59
2023-02-03T12:34:17.453Z,101692.81
2023-02-03T12:36:53.672Z,101676.28
2023-02-03T12:39:36.710Z,101666.63
2023-02-03T12:42:16.006Z,101661.50
2023-02-03T12:44:56.069Z,101645.09
2023-02-03T12:47:26.372Z,101640.66
2023-02-03T12:49:59.596Z,101625.19
2023-02-03T12:52:46.162Z,101616.00
2023-02-03T12:55:34.766Z,101627.00
2023-02-03T12:58:13.930Z,101629.19
2023-02-03T13:00:44.260Z,101620.66
2023-02-03T13:03:22.327Z,101594.84
2023-02-03T13:05:52.845Z,101613.53
2023-02-03T13:08:34.687Z,101587.22
2023-02-03T13:11:29.732Z,101589.03
2023-02-03T13:14:11.285Z,101587.84
2023-02-03T13:16:47.412Z,101565.75
2023-02-03T13:19:21.357Z,101582.09
2023-02-03T13:21:52.771Z,101575.13
2023-02-03T13:24:25.304Z,101569.94
2023-02-03T13:26:55.512Z,101571.75
2023-02-03T13:30:04.661Z,101572.50
2023-02-03T13:32:55.513Z,101575.94
2023-02-03T13:35:39.999Z,101573.38
2023-02-03T13:38:29.320Z,101576.25
2023-02-03T13:41:08.599Z,101570.25
2023-02-03T13:43:40.588Z,101561.41
2023-02-03T13:46:26.288Z,101549.09
2023-02-03T13:48:58.724Z,101556.94
2023-02-03T13:51:34.198Z,101560.75
2023-02-03T13:54:06.076Z,101564.34
2023-02-03T13:56:35.951Z,101546.00
2023-02-03T13:59:15.383Z,101543.34
2023-02-03T14:01:43.740Z,101556.84
2023-02-03T14:04:26.343Z,101546.41
2023-02-03T14:06:53.812Z,101548.25
2023-02-03T14:09:24.070Z,101548.16
2023-02-03T14:11:52.740Z,101528.03
2023-02-03T14:14:22.810Z,101533.66
2023-02-03T14:16:54.822Z,101537.97
2023-02-03T14:19:22.546Z,101537.94
2023-02-03T14:21:56.121Z,101520.19
2023-02-03T14:24:24.075Z,101514.78
2023-02-03T14:26:55.320Z,101521.00
2023-02-03T14:29:25.840Z,101547.06
2023-02-03T14:31:57.135Z,101538.19
2023-02-03T14:34:41.026Z,101522.50
2023-02-03T14:37:24.913Z,101523.22
2023-02-03T14:39:58.322Z,101537.16
2023-02-03T14:42:52.002Z,101526.09
2023-02-03T14:45:51.956Z,101514.50
2023-02-03T14:48:49.227Z,101505.19
2023-02-03T14:51:35.167Z,101527.34
2023-02-03T14:54:16.075Z,101533.38
2023-02-03T14:57:18.718Z,101528.81
2023-02-03T14:59:51.046Z,101517.94
2023-02-03T15:02:26.002Z,101521.38
2023-02-03T15:05:13.692Z,101532.38
2023-02-03T15:07:45.560Z,101524.94
2023-02-03T15:10:40.732Z,101530.88
2023-02-03T15:13:30.891Z,101527.00
2023-02-03T15:16:04.365Z,101521.16
2023-02-03T15:18:40.905Z,101523.78
2023-02-03T15:21:17.938Z,101508.47
2023-02-03T15:23:52.023Z,101498.63
2023-02-03T15:26:25.310Z,101504.97
2023-02-03T15:28:58.234Z,101511.44
2023-02-03T15:31:40.893Z,101515.09
2023-02-03T15:34:23.354Z,101520.78
2023-02-03T15:36:54.508Z,101491.69
2023-02-03T15:39:39.156Z,101515.66
2023-02-03T15:42:14.200Z,101508.50
2023-02-03T15:44:51.544Z,101489.00
2023-02-03T15:47:48.101Z,101503.28
2023-02-03T15:50:32.245Z,101493.22
2023-02-03T15:53:10.474Z,101507.59
2023-02-03T15:55:48.287Z,101482.66
2023-02-03T15:58:26.223Z,101499.78
2023-02-03T16:00:56.946Z,101492.94
2023-02-03T16:03:37.403Z,101497.28
2023-02-03T16:06:36.032Z,101495.03
2023-02-03T16:09:04.230Z,101473.81
2023-02-03T16:11:41.918Z,101500.13
2023-02-03T16:14:31.220Z,101492.75
2023-02-03T16:17:05.515Z,101493.63
2023-02-03T16:19:38.278Z,101482.22
2023-02-03T16:22:35.848Z,101480.09
2023-02-03T16:25:19.354Z,101478.81
2023-02-03T16:28:43.779Z,101477.34
2023-02-03T16:31:37.421Z,101462.38
2023-02-03T16:34:36.611Z,101441.78
2023-02-03T16:37:40.853Z,101440.50
2023-02-03T16:40:28.625Z,101433.69
2023-02-03T16:43:14.935Z,101424.16
2023-02-03T16:46:01.263Z,101434.84
2023-02-03T16:48:47.171Z,101424.75
2023-02-03T16:51:18.219Z,101449.13
2023-02-03T16:53:48.456Z,101427.53
2023-02-03T16:56:18.652Z,101435.31
2023-02-03T16:58:46.671Z,101434.13
2023-02-03T17:01:14.550Z,101426.03
2023-02-03T17:03:42.137Z,101435.56
2023-02-03T17:06:11.559Z,101432.69
2023-02-03T17:08:41.134Z,101434.66
2023-02-03T17:11:15.573Z,101452.81
2023-02-03T17:13:43.518Z,101458.47
2023-02-03T17:16:20.140Z,101466.38
2023-02-03T17:18:47.757Z,101466.16
2023-02-03T17:21:19.810Z,101457.63
2023-02-03T17:23:47.621Z,101453.34
2023-02-03T17:26:17.003Z,101443.44
2023-02-03T17:28:47.028Z,101449.72
2023-02-03T17:31:27.019Z,101436.59
2023-02-03T17:33:55.108Z,101421.09
2023-02-03T17:36:22.731Z,101414.59
2023-02-03T17:55:32.107Z,101396.00
2023-02-03T17:57:59.736Z,101396.13
2023-02-03T18:00:27.528Z,101386.19
2023-02-03T18:02:56.123Z,101405.50
2023-02-03T18:05:28.967Z,101370.91
2023-02-03T18:07:56.644Z,101368.31
2023-02-03T18:10:24.126Z,101375.66
2023-02-03T18:12:51.557Z,101361.53
2023-02-03T18:15:19.048Z,101353.75
2023-02-03T18:17:46.528Z,101352.00
2023-02-03T18:20:14.259Z,101332.00
2023-02-03T18:22:43.669Z,101358.03
2023-02-03T18:25:12.030Z,101359.53
2023-02-03T18:27:39.921Z,101346.28
2023-02-03T18:30:14.708Z,101330.03
2023-02-03T18:32:42.768Z,101333.09
2023-02-03T18:35:19.119Z,101327.91
2023-02-03T18:38:03.122Z,101339.63
2023-02-03T18:40:38.084Z,101343.22
2023-02-03T18:43:33.600Z,101330.03
2023-02-03T18:46:13.947Z,101344.19
2023-02-03T18:48:43.916Z,101323.84
2023-02-03T18:51:13.558Z,101323.44
2023-02-03T18:53:41.914Z,101326.28
2023-02-03T18:56:15.603Z,101319.25
2023-02-03T18:58:43.881Z,101321.56
2023-02-03T19:01:20.954Z,101311.31
2023-02-03T19:03:49.193Z,101319.34
2023-02-03T19:06:18.694Z,101310.66
2023-02-03T19:08:50.860Z,101307.22
2023-02-03T19:11:20.352Z,101306.72
2023-02-03T19:13:48.459Z,101301.72
2023-02-03T19:16:19.345Z,101281.41
2023-02-03T19:18:47.757Z,101283.00
2023-02-03T19:21:15.724Z,101279.75
2023-02-03T19:23:43.338Z,101267.44
2023-02-03T19:26:12.164Z,101269.38
2023-02-03T19:28:40.565Z,101250.81
2023-02-03T19:31:12.001Z,101256.47
2023-02-03T19:33:39.510Z,101270.78
2023-02-03T19:36:08.477Z,101269.59
2023-02-03T19:38:36.289Z,101255.97
2023-02-03T19:41:03.757Z,101253.09
2023-02-03T19:43:31.584Z,101236.75
2023-02-03T19:45:59.384Z,101226.31
2023-02-03T19:48:26.815Z,101223.13
2023-02-03T19:50:54.310Z,101213.72
2023-02-03T19:53:21.866Z,101217.25
2023-02-03T19:55:49.564Z,101204.09
2023-02-03T19:58:17.058Z,101199.97
2023-02-03T20:00:44.630Z,101213.16
2023-02-03T20:03:12.065Z,101210.00
2023-02-03T20:05:39.816Z,101194.41
2023-02-03T20:08:07.376Z,101185.75
2023-02-03T20:10:34.945Z,101186.22
2023-02-03T20:13:02.452Z,101208.63
2023-02-03T20:15:30.020Z,101182.16
2023-02-03T20:17:57.530Z,101178.59
2023-02-03T20:20:25.047Z,101179.84
2023-02-03T20:22:52.550Z,101166.81
2023-02-03T20:25:20.227Z,101170.44
2023-02-03T20:27:48.041Z,101161.94
2023-02-03T20:30:15.737Z,101154.13
2023-02-03T20:32:43.329Z,101160.28
2023-02-03T20:35:12.754Z,101181.16
2023-02-03T20:37:40.361Z,101166.53
2023-02-03T20:40:16.251Z,101168.53
2023-02-03T20:42:43.869Z,101183.16
2023-02-03T20:45:16.275Z,101166.09
2023-02-03T20:47:44.897Z,101163.94
2023-02-03T20:50:18.491Z,101173.53
2023-02-03T20:52:49.927Z,101185.47
2023-02-03T20:55:20.496Z,101176.03
2023-02-03T20:57:51.463Z,101171.72
2023-02-03T21:00:24.370Z,101159.06
2023-02-03T21:03:10.703Z,101160.72
2023-02-03T21:05:41.957Z,101153.66
2023-02-03T21:08:12.171Z,101153.44
2023-02-03T21:10:41.022Z,101157.22
2023-02-03T21:13:38.717Z,101149.25
2023-02-03T21:16:16.431Z,101168.16
2023-02-03T21:19:04.471Z,101153.50
2023-02-03T21:21:38.188Z,101151.69
2023-02-03T21:24:17.671Z,101141.28
2023-02-03T21:26:45.371Z,101142.31
2023-02-03T21:29:25.370Z,101140.47
2023-02-03T21:31:54.594Z,101153.38
2023-02-03T21:34:33.582Z,101146.47
2023-02-03T21:37:40.254Z,101151.63
2023-02-03T21:40:37.251Z,101160.22
2023-02-03T21:43:11.726Z,101158.16
2023-02-03T21:45:42.636Z,101152.66
2023-02-03T21:48:30.253Z,101154.78
2023-02-03T21:51:20.804Z,101158.47
2023-02-03T21:53:55.933Z,101143.06
2023-02-03T21:56:27.743Z,101156.19
2023-02-03T21:59:00.452Z,101162.69
2023-02-03T22:01:34.694Z,101159.88
2023-02-03T22:04:04.167Z,101157.38
2023-02-03T22:06:40.652Z,101157.19
2023-02-03T22:09:14.928Z,101155.31
2023-02-03T22:11:42.647Z,101152.84
2023-02-03T22:14:10.484Z,101148.75
2023-02-03T22:16:38.099Z,101131.19
2023-02-03T22:19:05.986Z,101146.09
2023-02-03T22:21:34.186Z,101157.94
2023-02-03T22:24:01.916Z,101150.06
2023-02-03T22:26:29.540Z,101144.69
2023-02-03T22:28:57.266Z,101149.81
2023-02-03T22:31:24.933Z,101156.59
2023-02-03T22:33:52.581Z,101159.19
2023-02-03T22:36:23.325Z,101160.78
2023-02-03T22:38:51.066Z,101165.81
2023-02-03T22:41:20.941Z,101172.56
2023-02-03T22:43:48.645Z,101170.72
2023-02-03T22:46:16.294Z,101178.16
2023-02-03T22:48:43.780Z,101157.53
2023-02-03T22:51:12.582Z,101178.41
2023-02-03T22:53:40.176Z,101172.09
2023-02-03T22:56:07.968Z,101178.03
2023-02-03T22:58:35.520Z,101175.66
2023-02-03T23:01:03.272Z,101194.94
2023-02-03T23:03:32.778Z,101189.81
2023-02-03T23:06:00.436Z,101183.75
2023-02-03T23:08:27.956Z,101178.06
2023-02-03T23:10:56.300Z,101171.31
2023-02-03T23:13:23.901Z,101180.50
2023-02-03T23:15:51.521Z,101172.03
2023-02-03T23:18:19.095Z,101175.50
2023-02-03T23:20:46.611Z,101170.19
2023-02-03T23:23:14.376Z,101168.56
2023-02-03T23:25:41.846Z,101178.28
2023-02-03T23:28:09.369Z,101184.34
2023-02-03T23:30:37.212Z,101185.78
2023-02-03T23:33:04.731Z,101193.00
2023-02-03T23:35:47.134Z,101171.31
2023-02-03T23:38:15.833Z,101179.97
2023-02-03T23:40:43.887Z,101182.31
2023-02-03T23:43:11.402Z,101172.06
2023-02-03T23:45:39.025Z,101161.84
2023-02-03T23:48:07.698Z,101158.97
2023-02-03T23:50:35.390Z,101157.91
2023-02-03T23:53:02.937Z,101153.44
2023-02-03T23:55:31.432Z,101172.28
2023-02-03T23:57:59.073Z,101138.47
